sensor_id;sensor_type;location;lat;lon;timestamp;P1;durP1;ratioP1;P2;durP2;ratioP2
74309;SDS011;62722;51.142;17.052;2022-09-27T00:00:57;35.85;;;19.20;;
74309;SDS011;62722;51.142;17.052;2022-09-27T00:03:31;41.22;;;20.15;;
74309;SDS011;62722;51.142;17.052;2022-09-27T00:06:00;45.60;;;21.02;;
74309;SDS011;62722;51.142;17.052;2022-09-27T00:08:32;43.15;;;21.15;;
74309;SDS011;62722;51.142;17.052;2022-09-27T00:11:01;44.80;;;20.63;;
74309;SDS011;62722;51.142;17.052;2022-09-27T00:13:29;40.67;;;20.27;;
74309;SDS011;62722;51.142;17.052;2022-09-27T00:15:57;38.15;;;19.10;;
74309;SDS011;62722;51.142;17.052;2022-09-27T00:18:26;40.33;;;19.38;;
74309;SDS011;62722;51.142;17.052;2022-09-27T00:20:53;39.08;;;18.60;;
74309;SDS011;62722;51.142;17.052;2022-09-27T00:23:21;37.50;;;18.35;;
74309;SDS011;62722;51.142;17.052;2022-09-27T00:25:56;33.90;;;18.48;;
74309;SDS011;62722;51.142;17.052;2022-09-27T00:28:25;43.03;;;20.60;;
74309;SDS011;62722;51.142;17.052;2022-09-27T00:30:53;44.50;;;20.60;;
74309;SDS011;62722;51.142;17.052;2022-09-27T00:33:21;40.90;;;19.92;;
74309;SDS011;62722;51.142;17.052;2022-09-27T00:35:48;38.10;;;18.73;;
74309;SDS011;62722;51.142;17.052;2022-09-27T00:38:16;35.67;;;18.83;;
74309;SDS011;62722;51.142;17.052;2022-09-27T00:40:44;39.40;;;20.25;;
74309;SDS011;62722;51.142;17.052;2022-09-27T00:43:17;35.20;;;19.38;;
74309;SDS011;62722;51.142;17.052;2022-09-27T00:45:46;36.22;;;18.05;;
74309;SDS011;62722;51.142;17.052;2022-09-27T00:48:19;33.58;;;18.73;;
74309;SDS011;62722;51.142;17.052;2022-09-27T00:50:53;31.58;;;18.00;;
74309;SDS011;62722;51.142;17.052;2022-09-27T00:53:25;38.55;;;19.75;;
74309;SDS011;62722;51.142;17.052;2022-09-27T00:55:58;42.67;;;20.83;;
74309;SDS011;62722;51.142;17.052;2022-09-27T00:58:30;39.13;;;19.33;;
74309;SDS011;62722;51.142;17.052;2022-09-27T01:01:01;44.58;;;19.98;;
74309;SDS011;62722;51.142;17.052;2022-09-27T01:03:35;42.97;;;20.80;;
74309;SDS011;62722;51.142;17.052;2022-09-27T01:06:08;46.70;;;21.38;;
74309;SDS011;62722;51.142;17.052;2022-09-27T01:08:36;41.03;;;19.80;;
74309;SDS011;62722;51.142;17.052;2022-09-27T01:11:12;38.15;;;17.98;;
74309;SDS011;62722;51.142;17.052;2022-09-27T01:13:50;38.60;;;19.27;;
74309;SDS011;62722;51.142;17.052;2022-09-27T01:16:32;50.35;;;27.45;;
74309;SDS011;62722;51.142;17.052;2022-09-27T01:19:09;40.90;;;19.70;;
74309;SDS011;62722;51.142;17.052;2022-09-27T01:21:49;34.42;;;17.45;;
74309;SDS011;62722;51.142;17.052;2022-09-27T01:24:39;31.75;;;15.80;;
74309;SDS011;62722;51.142;17.052;2022-09-27T01:27:38;32.08;;;15.95;;
74309;SDS011;62722;51.142;17.052;2022-09-27T01:30:24;33.22;;;16.08;;
74309;SDS011;62722;51.142;17.052;2022-09-27T01:33:06;38.75;;;20.17;;
74309;SDS011;62722;51.142;17.052;2022-09-27T01:35:41;43.22;;;20.40;;
74309;SDS011;62722;51.142;17.052;2022-09-27T01:38:20;36.88;;;17.80;;
74309;SDS011;62722;51.142;17.052;2022-09-27T01:40:52;35.10;;;17.90;;
74309;SDS011;62722;51.142;17.052;2022-09-27T01:43:25;37.20;;;19.05;;
74309;SDS011;62722;51.142;17.052;2022-09-27T01:46:00;42.42;;;18.45;;
74309;SDS011;62722;51.142;17.052;2022-09-27T01:48:32;36.25;;;18.10;;
74309;SDS011;62722;51.142;17.052;2022-09-27T01:51:05;34.00;;;17.10;;
74309;SDS011;62722;51.142;17.052;2022-09-27T01:53:37;36.78;;;18.33;;
74309;SDS011;62722;51.142;17.052;2022-09-27T01:56:07;38.47;;;19.48;;
74309;SDS011;62722;51.142;17.052;2022-09-27T01:58:40;37.63;;;17.77;;
74309;SDS011;62722;51.142;17.052;2022-09-27T02:01:12;35.17;;;17.35;;
74309;SDS011;62722;51.142;17.052;2022-09-27T02:03:42;36.10;;;17.55;;
74309;SDS011;62722;51.142;17.052;2022-09-27T02:06:13;37.03;;;17.38;;
74309;SDS011;62722;51.142;17.052;2022-09-27T02:08:44;39.08;;;17.73;;
74309;SDS011;62722;51.142;17.052;2022-09-27T02:11:16;38.45;;;17.60;;
74309;SDS011;62722;51.142;17.052;2022-09-27T02:13:45;35.55;;;17.33;;
74309;SDS011;62722;51.142;17.052;2022-09-27T02:16:21;37.97;;;18.20;;
74309;SDS011;62722;51.142;17.052;2022-09-27T02:18:56;37.85;;;18.25;;
74309;SDS011;62722;51.142;17.052;2022-09-27T02:21:36;42.13;;;18.73;;
74309;SDS011;62722;51.142;17.052;2022-09-27T02:24:10;41.58;;;18.27;;
74309;SDS011;62722;51.142;17.052;2022-09-27T02:26:45;33.22;;;17.63;;
74309;SDS011;62722;51.142;17.052;2022-09-27T02:29:19;34.40;;;16.83;;
74309;SDS011;62722;51.142;17.052;2022-09-27T02:31:55;37.25;;;16.55;;
74309;SDS011;62722;51.142;17.052;2022-09-27T02:34:22;41.67;;;19.05;;
74309;SDS011;62722;51.142;17.052;2022-09-27T02:36:52;34.45;;;16.85;;
74309;SDS011;62722;51.142;17.052;2022-09-27T02:39:21;39.33;;;18.27;;
74309;SDS011;62722;51.142;17.052;2022-09-27T02:41:50;38.33;;;18.55;;
74309;SDS011;62722;51.142;17.052;2022-09-27T02:44:17;40.00;;;19.15;;
74309;SDS011;62722;51.142;17.052;2022-09-27T02:49:48;44.10;;;19.80;;
74309;SDS011;62722;51.142;17.052;2022-09-27T02:52:26;36.75;;;17.25;;
74309;SDS011;62722;51.142;17.052;2022-09-27T02:55:05;36.08;;;19.02;;
74309;SDS011;62722;51.142;17.052;2022-09-27T02:57:42;33.97;;;17.42;;
74309;SDS011;62722;51.142;17.052;2022-09-27T03:00:20;35.83;;;17.88;;
74309;SDS011;62722;51.142;17.052;2022-09-27T03:02:54;34.50;;;17.08;;
74309;SDS011;62722;51.142;17.052;2022-09-27T03:05:28;39.72;;;16.77;;
74309;SDS011;62722;51.142;17.052;2022-09-27T03:07:59;36.13;;;17.65;;
74309;SDS011;62722;51.142;17.052;2022-09-27T03:10:27;38.85;;;19.05;;
74309;SDS011;62722;51.142;17.052;2022-09-27T03:12:56;36.35;;;18.77;;
74309;SDS011;62722;51.142;17.052;2022-09-27T03:15:25;33.50;;;17.25;;
74309;SDS011;62722;51.142;17.052;2022-09-27T03:17:58;37.53;;;17.10;;
74309;SDS011;62722;51.142;17.052;2022-09-27T03:20:25;36.60;;;18.33;;
74309;SDS011;62722;51.142;17.052;2022-09-27T03:22:54;37.03;;;17.77;;
74309;SDS011;62722;51.142;17.052;2022-09-27T03:25:21;37.78;;;17.58;;
74309;SDS011;62722;51.142;17.052;2022-09-27T03:27:49;37.80;;;17.73;;
74309;SDS011;62722;51.142;17.052;2022-09-27T03:30:17;34.55;;;17.63;;
74309;SDS011;62722;51.142;17.052;2022-09-27T03:32:46;37.88;;;19.05;;
74309;SDS011;62722;51.142;17.052;2022-09-27T03:35:15;39.97;;;19.42;;
74309;SDS011;62722;51.142;17.052;2022-09-27T03:37:43;39.08;;;18.23;;
74309;SDS011;62722;51.142;17.052;2022-09-27T03:40:11;36.55;;;17.65;;
74309;SDS011;62722;51.142;17.052;2022-09-27T03:42:39;33.40;;;16.88;;
74309;SDS011;62722;51.142;17.052;2022-09-27T03:45:07;31.77;;;16.45;;
74309;SDS011;62722;51.142;17.052;2022-09-27T03:47:38;33.80;;;17.15;;
74309;SDS011;62722;51.142;17.052;2022-09-27T03:50:07;32.90;;;16.35;;
74309;SDS011;62722;51.142;17.052;2022-09-27T03:52:38;34.28;;;17.10;;
74309;SDS011;62722;51.142;17.052;2022-09-27T03:55:06;33.92;;;16.25;;
74309;SDS011;62722;51.142;17.052;2022-09-27T03:57:34;32.15;;;15.52;;
74309;SDS011;62722;51.142;17.052;2022-09-27T04:00:05;31.63;;;16.42;;
74309;SDS011;62722;51.142;17.052;2022-09-27T04:02:34;31.83;;;16.27;;
74309;SDS011;62722;51.142;17.052;2022-09-27T04:05:02;32.17;;;16.73;;
74309;SDS011;62722;51.142;17.052;2022-09-27T04:07:30;34.08;;;17.30;;
74309;SDS011;62722;51.142;17.052;2022-09-27T04:09:59;35.08;;;16.25;;
74309;SDS011;62722;51.142;17.052;2022-09-27T04:12:26;32.13;;;17.52;;
74309;SDS011;62722;51.142;17.052;2022-09-27T04:14:54;32.35;;;15.93;;
74309;SDS011;62722;51.142;17.052;2022-09-27T04:17:21;32.65;;;15.23;;
74309;SDS011;62722;51.142;17.052;2022-09-27T04:19:50;31.70;;;15.48;;
74309;SDS011;62722;51.142;17.052;2022-09-27T04:22:18;33.38;;;16.85;;
74309;SDS011;62722;51.142;17.052;2022-09-27T04:24:45;29.17;;;15.27;;
74309;SDS011;62722;51.142;17.052;2022-09-27T04:27:14;27.20;;;14.10;;
74309;SDS011;62722;51.142;17.052;2022-09-27T04:29:42;30.52;;;15.68;;
74309;SDS011;62722;51.142;17.052;2022-09-27T04:32:10;27.52;;;15.70;;
74309;SDS011;62722;51.142;17.052;2022-09-27T04:34:37;29.50;;;15.38;;
74309;SDS011;62722;51.142;17.052;2022-09-27T04:37:22;32.92;;;15.95;;
74309;SDS011;62722;51.142;17.052;2022-09-27T04:39:49;31.08;;;16.40;;
74309;SDS011;62722;51.142;17.052;2022-09-27T04:42:17;33.53;;;16.38;;
74309;SDS011;62722;51.142;17.052;2022-09-27T04:44:45;30.48;;;16.45;;
74309;SDS011;62722;51.142;17.052;2022-09-27T04:47:12;34.92;;;16.70;;
74309;SDS011;62722;51.142;17.052;2022-09-27T04:49:39;33.97;;;17.15;;
74309;SDS011;62722;51.142;17.052;2022-09-27T04:52:06;35.17;;;17.23;;
74309;SDS011;62722;51.142;17.052;2022-09-27T04:54:33;35.75;;;17.58;;
74309;SDS011;62722;51.142;17.052;2022-09-27T04:57:02;37.97;;;18.55;;
74309;SDS011;62722;51.142;17.052;2022-09-27T04:59:31;34.75;;;16.75;;
74309;SDS011;62722;51.142;17.052;2022-09-27T05:01:58;35.45;;;18.05;;
74309;SDS011;62722;51.142;17.052;2022-09-27T05:04:25;40.80;;;19.88;;
74309;SDS011;62722;51.142;17.052;2022-09-27T05:06:53;41.72;;;18.85;;
74309;SDS011;62722;51.142;17.052;2022-09-27T05:09:20;35.67;;;17.40;;
74309;SDS011;62722;51.142;17.052;2022-09-27T05:11:47;33.85;;;18.05;;
74309;SDS011;62722;51.142;17.052;2022-09-27T05:14:14;34.28;;;18.00;;
74309;SDS011;62722;51.142;17.052;2022-09-27T05:16:43;39.72;;;18.30;;
74309;SDS011;62722;51.142;17.052;2022-09-27T05:19:10;35.88;;;17.77;;
74309;SDS011;62722;51.142;17.052;2022-09-27T05:21:37;36.45;;;17.38;;
74309;SDS011;62722;51.142;17.052;2022-09-27T05:24:04;37.45;;;18.63;;
74309;SDS011;62722;51.142;17.052;2022-09-27T05:26:31;39.78;;;17.80;;
74309;SDS011;62722;51.142;17.052;2022-09-27T05:28:58;41.03;;;18.48;;
74309;SDS011;62722;51.142;17.052;2022-09-27T05:31:25;34.92;;;16.92;;
74309;SDS011;62722;51.142;17.052;2022-09-27T05:33:54;38.95;;;17.40;;
74309;SDS011;62722;51.142;17.052;2022-09-27T05:36:22;34.97;;;18.38;;
74309;SDS011;62722;51.142;17.052;2022-09-27T05:38:49;35.08;;;17.13;;
74309;SDS011;62722;51.142;17.052;2022-09-27T05:41:16;34.33;;;16.52;;
74309;SDS011;62722;51.142;17.052;2022-09-27T05:43:43;39.47;;;17.60;;
74309;SDS011;62722;51.142;17.052;2022-09-27T05:46:11;39.30;;;18.67;;
74309;SDS011;62722;51.142;17.052;2022-09-27T05:48:38;31.55;;;16.90;;
74309;SDS011;62722;51.142;17.052;2022-09-27T05:51:07;34.47;;;17.35;;
74309;SDS011;62722;51.142;17.052;2022-09-27T05:53:34;33.03;;;17.27;;
74309;SDS011;62722;51.142;17.052;2022-09-27T05:56:02;34.83;;;16.63;;
74309;SDS011;62722;51.142;17.052;2022-09-27T05:58:29;30.85;;;16.83;;
74309;SDS011;62722;51.142;17.052;2022-09-27T06:00:56;36.00;;;17.95;;
74309;SDS011;62722;51.142;17.052;2022-09-27T06:03:23;33.85;;;17.30;;
74309;SDS011;62722;51.142;17.052;2022-09-27T06:05:51;34.28;;;17.75;;
74309;SDS011;62722;51.142;17.052;2022-09-27T06:08:19;31.95;;;16.45;;
74309;SDS011;62722;51.142;17.052;2022-09-27T06:10:46;35.85;;;17.35;;
74309;SDS011;62722;51.142;17.052;2022-09-27T06:13:14;32.10;;;18.00;;
74309;SDS011;62722;51.142;17.052;2022-09-27T06:15:43;35.47;;;17.45;;
74309;SDS011;62722;51.142;17.052;2022-09-27T06:18:12;32.53;;;17.05;;
74309;SDS011;62722;51.142;17.052;2022-09-27T06:20:40;34.47;;;17.45;;
74309;SDS011;62722;51.142;17.052;2022-09-27T06:23:09;29.00;;;15.15;;
74309;SDS011;62722;51.142;17.052;2022-09-27T06:25:39;28.27;;;14.95;;
74309;SDS011;62722;51.142;17.052;2022-09-27T06:28:07;29.30;;;15.80;;
74309;SDS011;62722;51.142;17.052;2022-09-27T06:30:37;31.58;;;15.85;;
74309;SDS011;62722;51.142;17.052;2022-09-27T06:33:05;32.50;;;15.73;;
74309;SDS011;62722;51.142;17.052;2022-09-27T06:35:33;32.38;;;15.85;;
74309;SDS011;62722;51.142;17.052;2022-09-27T06:38:02;30.30;;;14.43;;
74309;SDS011;62722;51.142;17.052;2022-09-27T06:40:31;31.63;;;16.40;;
74309;SDS011;62722;51.142;17.052;2022-09-27T06:43:02;29.45;;;15.35;;
74309;SDS011;62722;51.142;17.052;2022-09-27T06:45:32;29.65;;;14.82;;
74309;SDS011;62722;51.142;17.052;2022-09-27T06:48:03;30.73;;;16.05;;
74309;SDS011;62722;51.142;17.052;2022-09-27T06:50:32;31.77;;;16.33;;
74309;SDS011;62722;51.142;17.052;2022-09-27T06:53:01;29.85;;;15.20;;
74309;SDS011;62722;51.142;17.052;2022-09-27T06:58:31;27.33;;;14.75;;
74309;SDS011;62722;51.142;17.052;2022-09-27T07:01:15;30.48;;;16.30;;
74309;SDS011;62722;51.142;17.052;2022-09-27T07:03:43;30.55;;;16.15;;
74309;SDS011;62722;51.142;17.052;2022-09-27T07:06:16;33.00;;;16.77;;
74309;SDS011;62722;51.142;17.052;2022-09-27T07:08:48;29.45;;;15.25;;
74309;SDS011;62722;51.142;17.052;2022-09-27T07:13:45;30.17;;;15.63;;
74309;SDS011;62722;51.142;17.052;2022-09-27T07:16:12;30.10;;;15.85;;
74309;SDS011;62722;51.142;17.052;2022-09-27T07:18:40;30.13;;;15.68;;
74309;SDS011;62722;51.142;17.052;2022-09-27T07:21:07;31.90;;;16.38;;
74309;SDS011;62722;51.142;17.052;2022-09-27T07:23:35;31.65;;;16.38;;
74309;SDS011;62722;51.142;17.052;2022-09-27T07:26:02;33.03;;;16.33;;
74309;SDS011;62722;51.142;17.052;2022-09-27T07:28:31;30.40;;;16.50;;
74309;SDS011;62722;51.142;17.052;2022-09-27T07:31:01;30.77;;;15.70;;
74309;SDS011;62722;51.142;17.052;2022-09-27T07:33:28;29.42;;;15.50;;
74309;SDS011;62722;51.142;17.052;2022-09-27T07:35:55;28.42;;;15.27;;
74309;SDS011;62722;51.142;17.052;2022-09-27T07:38:23;30.63;;;16.35;;
74309;SDS011;62722;51.142;17.052;2022-09-27T07:40:50;30.40;;;14.70;;
74309;SDS011;62722;51.142;17.052;2022-09-27T07:43:17;26.05;;;14.57;;
74309;SDS011;62722;51.142;17.052;2022-09-27T07:45:45;27.00;;;14.30;;
74309;SDS011;62722;51.142;17.052;2022-09-27T07:48:14;25.50;;;13.82;;
74309;SDS011;62722;51.142;17.052;2022-09-27T07:50:41;30.77;;;14.70;;
74309;SDS011;62722;51.142;17.052;2022-09-27T07:53:09;29.08;;;15.15;;
74309;SDS011;62722;51.142;17.052;2022-09-27T07:55:38;31.63;;;15.13;;
74309;SDS011;62722;51.142;17.052;2022-09-27T07:58:07;26.58;;;13.75;;
74309;SDS011;62722;51.142;17.052;2022-09-27T08:00:35;27.52;;;14.65;;
74309;SDS011;62722;51.142;17.052;2022-09-27T08:03:04;26.80;;;14.18;;
74309;SDS011;62722;51.142;17.052;2022-09-27T08:05:34;29.70;;;14.68;;
74309;SDS011;62722;51.142;17.052;2022-09-27T08:08:02;26.42;;;14.32;;
74309;SDS011;62722;51.142;17.052;2022-09-27T08:10:30;26.50;;;14.02;;
74309;SDS011;62722;51.142;17.052;2022-09-27T08:12:57;28.33;;;14.73;;
74309;SDS011;62722;51.142;17.052;2022-09-27T08:15:28;27.05;;;14.75;;
74309;SDS011;62722;51.142;17.052;2022-09-27T08:17:55;27.00;;;14.68;;
74309;SDS011;62722;51.142;17.052;2022-09-27T08:20:22;26.00;;;14.15;;
74309;SDS011;62722;51.142;17.052;2022-09-27T08:22:51;26.90;;;14.15;;
74309;SDS011;62722;51.142;17.052;2022-09-27T08:25:18;26.40;;;13.98;;
74309;SDS011;62722;51.142;17.052;2022-09-27T08:27:53;29.90;;;15.88;;
74309;SDS011;62722;51.142;17.052;2022-09-27T08:30:21;27.63;;;15.13;;
74309;SDS011;62722;51.142;17.052;2022-09-27T08:32:48;28.48;;;15.20;;
74309;SDS011;62722;51.142;17.052;2022-09-27T08:35:15;35.63;;;16.50;;
74309;SDS011;62722;51.142;17.052;2022-09-27T08:37:42;40.45;;;20.67;;
74309;SDS011;62722;51.142;17.052;2022-09-27T08:40:14;33.05;;;17.80;;
74309;SDS011;62722;51.142;17.052;2022-09-27T08:42:44;31.35;;;16.00;;
74309;SDS011;62722;51.142;17.052;2022-09-27T08:45:18;29.83;;;14.55;;
74309;SDS011;62722;51.142;17.052;2022-09-27T08:50:25;30.35;;;15.05;;
74309;SDS011;62722;51.142;17.052;2022-09-27T08:52:55;24.02;;;14.23;;
74309;SDS011;62722;51.142;17.052;2022-09-27T08:55:29;27.08;;;14.35;;
74309;SDS011;62722;51.142;17.052;2022-09-27T08:58:02;26.08;;;14.20;;
74309;SDS011;62722;51.142;17.052;2022-09-27T09:00:42;25.45;;;13.63;;
74309;SDS011;62722;51.142;17.052;2022-09-27T09:05:46;23.10;;;13.68;;
74309;SDS011;62722;51.142;17.052;2022-09-27T09:08:25;23.42;;;13.00;;
74309;SDS011;62722;51.142;17.052;2022-09-27T09:11:03;30.02;;;13.63;;
74309;SDS011;62722;51.142;17.052;2022-09-27T09:14:01;28.45;;;15.02;;
74309;SDS011;62722;51.142;17.052;2022-09-27T09:16:44;25.45;;;14.25;;
74309;SDS011;62722;51.142;17.052;2022-09-27T09:19:35;30.73;;;15.60;;
74309;SDS011;62722;51.142;17.052;2022-09-27T09:22:14;31.05;;;16.10;;
74309;SDS011;62722;51.142;17.052;2022-09-27T09:24:59;28.30;;;15.32;;
74309;SDS011;62722;51.142;17.052;2022-09-27T09:30:17;25.20;;;13.35;;
74309;SDS011;62722;51.142;17.052;2022-09-27T09:32:51;28.55;;;13.93;;
74309;SDS011;62722;51.142;17.052;2022-09-27T09:35:31;29.52;;;15.27;;
74309;SDS011;62722;51.142;17.052;2022-09-27T09:38:05;26.10;;;15.05;;
74309;SDS011;62722;51.142;17.052;2022-09-27T09:40:39;26.13;;;13.65;;
74309;SDS011;62722;51.142;17.052;2022-09-27T09:43:14;24.30;;;14.05;;
74309;SDS011;62722;51.142;17.052;2022-09-27T09:45:46;27.35;;;14.27;;
74309;SDS011;62722;51.142;17.052;2022-09-27T09:48:18;24.15;;;13.05;;
74309;SDS011;62722;51.142;17.052;2022-09-27T09:50:53;22.52;;;12.88;;
74309;SDS011;62722;51.142;17.052;2022-09-27T09:53:26;24.80;;;12.82;;
74309;SDS011;62722;51.142;17.052;2022-09-27T09:56:02;23.13;;;13.40;;
74309;SDS011;62722;51.142;17.052;2022-09-27T09:58:35;21.90;;;13.18;;
74309;SDS011;62722;51.142;17.052;2022-09-27T10:01:10;21.88;;;12.10;;
74309;SDS011;62722;51.142;17.052;2022-09-27T10:03:43;22.08;;;12.23;;
74309;SDS011;62722;51.142;17.052;2022-09-27T10:06:10;21.45;;;11.85;;
74309;SDS011;62722;51.142;17.052;2022-09-27T10:08:38;18.48;;;11.18;;
74309;SDS011;62722;51.142;17.052;2022-09-27T10:11:08;20.30;;;11.00;;
74309;SDS011;62722;51.142;17.052;2022-09-27T10:13:45;19.40;;;11.23;;
74309;SDS011;62722;51.142;17.052;2022-09-27T10:16:15;19.75;;;10.77;;
74309;SDS011;62722;51.142;17.052;2022-09-27T10:18:43;19.30;;;10.18;;
74309;SDS011;62722;51.142;17.052;2022-09-27T10:21:14;16.30;;;9.45;;
74309;SDS011;62722;51.142;17.052;2022-09-27T10:24:01;17.17;;;10.15;;
74309;SDS011;62722;51.142;17.052;2022-09-27T10:26:33;16.95;;;10.05;;
74309;SDS011;62722;51.142;17.052;2022-09-27T10:29:19;17.83;;;9.77;;
74309;SDS011;62722;51.142;17.052;2022-09-27T10:31:49;18.20;;;10.48;;
74309;SDS011;62722;51.142;17.052;2022-09-27T10:34:19;18.38;;;10.27;;
74309;SDS011;62722;51.142;17.052;2022-09-27T10:37:01;18.05;;;10.57;;
74309;SDS011;62722;51.142;17.052;2022-09-27T10:39:31;18.88;;;10.10;;
74309;SDS011;62722;51.142;17.052;2022-09-27T10:41:59;19.13;;;10.88;;
74309;SDS011;62722;51.142;17.052;2022-09-27T10:44:28;17.67;;;10.60;;
74309;SDS011;62722;51.142;17.052;2022-09-27T10:46:57;18.02;;;9.70;;
74309;SDS011;62722;51.142;17.052;2022-09-27T10:49:32;21.42;;;11.40;;
74309;SDS011;62722;51.142;17.052;2022-09-27T10:52:02;17.65;;;10.63;;
74309;SDS011;62722;51.142;17.052;2022-09-27T10:54:32;22.48;;;10.70;;
74309;SDS011;62722;51.142;17.052;2022-09-27T10:57:02;21.67;;;11.52;;
74309;SDS011;62722;51.142;17.052;2022-09-27T10:59:34;26.00;;;13.05;;
74309;SDS011;62722;51.142;17.052;2022-09-27T11:02:05;20.30;;;11.23;;
74309;SDS011;62722;51.142;17.052;2022-09-27T11:05:00;21.83;;;12.18;;
74309;SDS011;62722;51.142;17.052;2022-09-27T11:07:30;19.17;;;11.10;;
74309;SDS011;62722;51.142;17.052;2022-09-27T11:09:57;20.17;;;11.50;;
74309;SDS011;62722;51.142;17.052;2022-09-27T11:12:27;22.95;;;11.48;;
74309;SDS011;62722;51.142;17.052;2022-09-27T11:14:58;22.35;;;11.32;;
74309;SDS011;62722;51.142;17.052;2022-09-27T11:17:30;22.00;;;11.30;;
74309;SDS011;62722;51.142;17.052;2022-09-27T11:20:12;23.83;;;12.07;;
74309;SDS011;62722;51.142;17.052;2022-09-27T11:25:49;23.70;;;11.90;;
74309;SDS011;62722;51.142;17.052;2022-09-27T11:28:31;24.17;;;12.30;;
74309;SDS011;62722;51.142;17.052;2022-09-27T11:31:16;23.00;;;13.60;;
74309;SDS011;62722;51.142;17.052;2022-09-27T11:34:10;25.13;;;13.88;;
74309;SDS011;62722;51.142;17.052;2022-09-27T11:36:50;24.75;;;12.75;;
74309;SDS011;62722;51.142;17.052;2022-09-27T11:39:32;27.33;;;13.40;;
74309;SDS011;62722;51.142;17.052;2022-09-27T11:42:12;28.67;;;13.90;;
74309;SDS011;62722;51.142;17.052;2022-09-27T11:45:01;25.23;;;12.15;;
74309;SDS011;62722;51.142;17.052;2022-09-27T11:47:45;24.60;;;13.23;;
74309;SDS011;62722;51.142;17.052;2022-09-27T11:50:31;24.73;;;13.38;;
74309;SDS011;62722;51.142;17.052;2022-09-27T11:53:20;25.08;;;14.50;;
74309;SDS011;62722;51.142;17.052;2022-09-27T11:56:00;28.05;;;14.25;;
74309;SDS011;62722;51.142;17.052;2022-09-27T11:58:39;24.08;;;13.50;;
74309;SDS011;62722;51.142;17.052;2022-09-27T12:01:17;24.27;;;13.43;;
74309;SDS011;62722;51.142;17.052;2022-09-27T12:04:03;23.52;;;12.20;;
74309;SDS011;62722;51.142;17.052;2022-09-27T12:06:44;22.38;;;12.68;;
74309;SDS011;62722;51.142;17.052;2022-09-27T12:09:16;18.73;;;10.82;;
74309;SDS011;62722;51.142;17.052;2022-09-27T12:11:47;17.17;;;10.55;;
74309;SDS011;62722;51.142;17.052;2022-09-27T12:14:18;18.70;;;11.38;;
74309;SDS011;62722;51.142;17.052;2022-09-27T12:16:51;36.72;;;17.50;;
74309;SDS011;62722;51.142;17.052;2022-09-27T12:19:22;17.00;;;10.70;;
74309;SDS011;62722;51.142;17.052;2022-09-27T12:21:53;18.25;;;10.10;;
74309;SDS011;62722;51.142;17.052;2022-09-27T12:24:24;17.88;;;9.60;;
74309;SDS011;62722;51.142;17.052;2022-09-27T12:26:54;19.13;;;10.25;;
74309;SDS011;62722;51.142;17.052;2022-09-27T12:29:25;16.08;;;9.60;;
74309;SDS011;62722;51.142;17.052;2022-09-27T12:31:58;15.48;;;9.68;;
74309;SDS011;62722;51.142;17.052;2022-09-27T12:34:34;17.60;;;10.00;;
74309;SDS011;62722;51.142;17.052;2022-09-27T12:37:09;15.52;;;9.55;;
74309;SDS011;62722;51.142;17.052;2022-09-27T12:39:41;14.43;;;8.77;;
74309;SDS011;62722;51.142;17.052;2022-09-27T12:42:16;15.25;;;9.05;;
74309;SDS011;62722;51.142;17.052;2022-09-27T12:44:46;15.82;;;9.48;;
74309;SDS011;62722;51.142;17.052;2022-09-27T12:47:17;18.40;;;9.57;;
74309;SDS011;62722;51.142;17.052;2022-09-27T12:49:56;18.17;;;10.05;;
74309;SDS011;62722;51.142;17.052;2022-09-27T12:52:30;22.70;;;12.77;;
74309;SDS011;62722;51.142;17.052;2022-09-27T12:58:19;18.45;;;10.95;;
74309;SDS011;62722;51.142;17.052;2022-09-27T13:01:18;16.33;;;9.73;;
74309;SDS011;62722;51.142;17.052;2022-09-27T13:04:02;15.77;;;9.38;;
74309;SDS011;62722;51.142;17.052;2022-09-27T13:06:51;16.52;;;8.90;;
74309;SDS011;62722;51.142;17.052;2022-09-27T13:09:34;15.55;;;8.82;;
74309;SDS011;62722;51.142;17.052;2022-09-27T13:12:49;14.63;;;8.73;;
74309;SDS011;62722;51.142;17.052;2022-09-27T13:15:06;13.85;;;7.70;;
74309;SDS011;62722;51.142;17.052;2022-09-27T13:17:51;17.00;;;9.30;;
74309;SDS011;62722;51.142;17.052;2022-09-27T13:20:40;17.08;;;8.77;;
74309;SDS011;62722;51.142;17.052;2022-09-27T13:26:45;12.48;;;7.18;;
74309;SDS011;62722;51.142;17.052;2022-09-27T13:29:22;15.25;;;8.55;;
74309;SDS011;62722;51.142;17.052;2022-09-27T13:32:01;15.65;;;8.57;;
74309;SDS011;62722;51.142;17.052;2022-09-27T13:34:44;12.50;;;7.20;;
74309;SDS011;62722;51.142;17.052;2022-09-27T13:40:31;11.50;;;6.63;;
74309;SDS011;62722;51.142;17.052;2022-09-27T13:43:04;12.15;;;7.45;;
74309;SDS011;62722;51.142;17.052;2022-09-27T13:45:49;12.95;;;7.38;;
74309;SDS011;62722;51.142;17.052;2022-09-27T13:48:22;14.95;;;7.28;;
74309;SDS011;62722;51.142;17.052;2022-09-27T13:50:58;13.65;;;7.72;;
74309;SDS011;62722;51.142;17.052;2022-09-27T13:54:08;12.40;;;7.18;;
74309;SDS011;62722;51.142;17.052;2022-09-27T13:57:03;12.63;;;7.55;;
74309;SDS011;62722;51.142;17.052;2022-09-27T13:59:36;11.90;;;7.35;;
74309;SDS011;62722;51.142;17.052;2022-09-27T14:02:11;11.30;;;7.03;;
74309;SDS011;62722;51.142;17.052;2022-09-27T14:04:45;12.13;;;7.35;;
74309;SDS011;62722;51.142;17.052;2022-09-27T14:07:16;12.50;;;6.85;;
74309;SDS011;62722;51.142;17.052;2022-09-27T14:09:48;13.30;;;8.07;;
74309;SDS011;62722;51.142;17.052;2022-09-27T14:12:20;13.68;;;8.35;;
74309;SDS011;62722;51.142;17.052;2022-09-27T14:17:20;11.95;;;7.03;;
74309;SDS011;62722;51.142;17.052;2022-09-27T14:19:48;12.15;;;7.18;;
74309;SDS011;62722;51.142;17.052;2022-09-27T14:22:17;14.95;;;7.03;;
74309;SDS011;62722;51.142;17.052;2022-09-27T14:24:46;12.40;;;7.97;;
74309;SDS011;62722;51.142;17.052;2022-09-27T14:27:15;12.63;;;7.53;;
74309;SDS011;62722;51.142;17.052;2022-09-27T14:29:46;13.05;;;7.57;;
74309;SDS011;62722;51.142;17.052;2022-09-27T14:32:17;11.15;;;7.00;;
74309;SDS011;62722;51.142;17.052;2022-09-27T14:37:31;12.63;;;7.57;;
74309;SDS011;62722;51.142;17.052;2022-09-27T14:39:58;13.75;;;8.52;;
74309;SDS011;62722;51.142;17.052;2022-09-27T14:42:31;13.57;;;7.78;;
74309;SDS011;62722;51.142;17.052;2022-09-27T14:45:03;13.85;;;7.78;;
74309;SDS011;62722;51.142;17.052;2022-09-27T14:47:48;12.40;;;7.53;;
74309;SDS011;62722;51.142;17.052;2022-09-27T14:50:18;13.98;;;8.73;;
74309;SDS011;62722;51.142;17.052;2022-09-27T14:53:01;15.57;;;7.75;;
74309;SDS011;62722;51.142;17.052;2022-09-27T14:55:50;12.73;;;7.55;;
74309;SDS011;62722;51.142;17.052;2022-09-27T14:58:19;11.55;;;7.32;;
74309;SDS011;62722;51.142;17.052;2022-09-27T15:00:48;12.77;;;7.32;;
74309;SDS011;62722;51.142;17.052;2022-09-27T15:03:18;14.02;;;8.23;;
74309;SDS011;62722;51.142;17.052;2022-09-27T15:05:50;13.85;;;7.82;;
74309;SDS011;62722;51.142;17.052;2022-09-27T15:08:19;12.75;;;8.30;;
74309;SDS011;62722;51.142;17.052;2022-09-27T15:10:50;12.57;;;7.38;;
74309;SDS011;62722;51.142;17.052;2022-09-27T15:13:18;13.93;;;8.10;;
74309;SDS011;62722;51.142;17.052;2022-09-27T15:15:46;14.55;;;7.00;;